Time;durP1;ratioP1;P1;durP2;ratioP2;P2;SDS_P1;SDS_P2;PMS_P1;PMS_P2;Temp;Humidity;BMP_temperature;BMP_pressure;BME280_temperature;BME280_humidity;BME280_pressure;Samples;Min_cycle;Max_cycle;Signal;HPM_P1;HPM_P2
2022/12/21 00:01:22;;;;;;;53.17;24.63;;;;;;;;;;5092633;28;20187;-45
2022/12/21 00:03:54;;;;;;;50.53;24.53;;;;;;;;;;5092507;28;20210;-45
2022/12/21 00:06:23;;;;;;;46.67;22.40;;;;;;;;;;5092428;28;20448;-45
2022/12/21 00:08:52;;;;;;;49.87;23.90;;;;;;;;;;5092416;28;20675;-46
2022/12/21 00:11:21;;;;;;;49.77;23.77;;;;;;;;;;5092417;28;20207;-46
2022/12/21 00:13:49;;;;;;;58.13;29.50;;;;;;;;;;5092415;28;20209;-45
2022/12/21 00:16:20;;;;;;;49.20;24.37;;;;;;;;;;5092744;28;20225;-46
2022/12/21 00:18:47;;;;;;;57.83;26.50;;;;;;;;;;5092891;28;20197;-45
2022/12/21 00:21:23;;;;;;;51.33;23.63;;;;;;;;;;5092729;28;20606;-45
2022/12/21 00:23:52;;;;;;;48.80;22.70;;;;;;;;;;5094558;28;20202;-45
2022/12/21 00:26:21;;;;;;;47.57;22.37;;;;;;;;;;5096609;28;20261;-46
2022/12/21 00:28:50;;;;;;;48.40;23.83;;;;;;;;;;5096595;28;20261;-44
2022/12/21 00:31:20;;;;;;;49.17;22.53;;;;;;;;;;5095388;28;20199;-45
2022/12/21 00:33:48;;;;;;;50.03;23.40;;;;;;;;;;5096614;28;20191;-45
2022/12/21 00:36:17;;;;;;;46.30;22.50;;;;;;;;;;5096159;28;20203;-45
2022/12/21 00:38:46;;;;;;;53.17;25.83;;;;;;;;;;5095335;28;20206;-46
2022/12/21 00:41:16;;;;;;;50.93;23.87;;;;;;;;;;5095699;28;20206;-46
2022/12/21 00:43:44;;;;;;;51.10;24.83;;;;;;;;;;5096135;28;20206;-45
2022/12/21 00:46:20;;;;;;;47.90;23.47;;;;;;;;;;5094960;28;20222;-46
2022/12/21 00:48:48;;;;;;;44.07;21.60;;;;;;;;;;5095239;28;20217;-44
2022/12/21 00:51:18;;;;;;;52.60;22.80;;;;;;;;;;5096001;28;20279;-44
2022/12/21 00:53:46;;;;;;;44.33;21.77;;;;;;;;;;5096199;28;20210;-44
2022/12/21 00:56:14;;;;;;;46.50;23.53;;;;;;;;;;5096298;28;20211;-44
2022/12/21 00:58:41;;;;;;;50.93;22.60;;;;;;;;;;5095675;28;20616;-45
2022/12/21 01:01:19;;;;;;;49.00;22.57;;;;;;;;;;5094908;28;20229;-45
2022/12/21 01:03:46;;;;;;;47.97;23.63;;;;;;;;;;5095641;28;20206;-45
2022/12/21 01:06:16;;;;;;;44.87;21.93;;;;;;;;;;5095650;28;20234;-45
2022/12/21 01:08:43;;;;;;;47.90;22.27;;;;;;;;;;5095599;28;20206;-44
2022/12/21 01:11:12;;;;;;;45.83;22.30;;;;;;;;;;5094638;28;20277;-45
2022/12/21 01:13:40;;;;;;;43.47;21.83;;;;;;;;;;5095440;28;20635;-45
2022/12/21 01:16:16;;;;;;;44.03;20.63;;;;;;;;;;5093420;28;20632;-44
2022/12/21 01:18:44;;;;;;;42.63;22.07;;;;;;;;;;5084080;28;20954;-44
2022/12/21 01:21:14;;;;;;;43.90;21.70;;;;;;;;;;5075002;28;20231;-45
2022/12/21 01:23:41;;;;;;;47.07;22.30;;;;;;;;;;5075165;28;20211;-44
2022/12/21 01:26:09;;;;;;;42.97;22.53;;;;;;;;;;5075243;28;20227;-47
2022/12/21 01:28:36;;;;;;;42.37;20.73;;;;;;;;;;5074381;28;20207;-47
2022/12/21 01:31:03;;;;;;;46.07;20.13;;;;;;;;;;5075026;28;20532;-44
2022/12/21 01:33:30;;;;;;;43.40;21.10;;;;;;;;;;5074065;28;20548;-45
2022/12/21 01:36:03;;;;;;;48.07;21.83;;;;;;;;;;5074780;28;20265;-44
2022/12/21 01:38:30;;;;;;;43.80;20.77;;;;;;;;;;5074898;28;20211;-45
2022/12/21 01:40:57;;;;;;;40.27;20.53;;;;;;;;;;5073743;28;20257;-45
2022/12/21 01:43:51;;;;;;;43.20;20.83;;;;;;;;;;5074773;28;20709;-46
2022/12/21 01:46:41;;;;;;;43.13;20.53;;;;;;;;;;5074084;28;20292;-45
2022/12/21 01:49:20;;;;;;;49.93;24.03;;;;;;;;;;5073638;28;20647;-45
2022/12/21 01:51:59;;;;;;;43.67;21.40;;;;;;;;;;5075100;28;20180;-46
2022/12/21 01:54:42;;;;;;;40.13;20.40;;;;;;;;;;5074499;28;20245;-46
2022/12/21 01:57:10;;;;;;;46.60;20.97;;;;;;;;;;5073595;28;20203;-45
2022/12/21 01:59:43;;;;;;;43.53;22.07;;;;;;;;;;5107180;28;20211;-47
2022/12/21 02:02:16;;;;;;;46.90;21.87;;;;;;;;;;5057153;28;20199;-45
2022/12/21 02:04:44;;;;;;;41.83;20.43;;;;;;;;;;5057065;28;20543;-46
2022/12/21 02:07:11;;;;;;;43.97;21.77;;;;;;;;;;5073351;28;20227;-48
2022/12/21 02:09:39;;;;;;;39.67;20.77;;;;;;;;;;5074529;28;20217;-48
2022/12/21 02:12:09;;;;;;;52.07;22.93;;;;;;;;;;5073229;28;20260;-45
2022/12/21 02:14:39;;;;;;;46.47;22.70;;;;;;;;;;5089963;28;20203;-46
2022/12/21 02:17:15;;;;;;;43.83;21.13;;;;;;;;;;5074441;28;20207;-45
2022/12/21 02:20:13;;;;;;;43.60;20.77;;;;;;;;;;5072631;28;20231;-45
2022/12/21 02:23:14;;;;;;;41.27;19.87;;;;;;;;;;5072667;28;20215;-47
2022/12/21 02:26:09;;;;;;;40.27;19.47;;;;;;;;;;5073597;28;20214;-45
2022/12/21 02:29:14;;;;;;;41.93;20.03;;;;;;;;;;5073351;28;20203;-45
2022/12/21 02:32:05;;;;;;;38.27;18.93;;;;;;;;;;5072900;28;20222;-44
2022/12/21 02:35:01;;;;;;;38.97;19.87;;;;;;;;;;5073311;28;20276;-46
2022/12/21 02:37:38;;;;;;;38.43;19.93;;;;;;;;;;5072425;28;20210;-45
2022/12/21 02:40:30;;;;;;;39.50;20.60;;;;;;;;;;5056111;28;20256;-44
2022/12/21 02:46:04;;;;;;;43.03;19.37;;;;;;;;;;5072051;28;20206;-45
2022/12/21 02:49:03;;;;;;;36.50;19.00;;;;;;;;;;5073626;28;20286;-44
2022/12/21 02:51:59;;;;;;;37.20;19.63;;;;;;;;;;5072872;28;20195;-44
2022/12/21 02:54:27;;;;;;;37.80;19.03;;;;;;;;;;5070497;28;20231;-45
2022/12/21 02:56:56;;;;;;;40.60;19.13;;;;;;;;;;5072471;28;20230;-45
2022/12/21 02:59:29;;;;;;;37.00;17.50;;;;;;;;;;5106097;28;20658;-45
2022/12/21 03:02:10;;;;;;;36.83;18.80;;;;;;;;;;5072371;28;20199;-45
2022/12/21 03:05:02;;;;;;;38.10;19.80;;;;;;;;;;5072326;28;20214;-45
2022/12/21 03:07:36;;;;;;;35.80;18.30;;;;;;;;;;5072558;28;20215;-44
2022/12/21 03:10:38;;;;;;;34.43;17.73;;;;;;;;;;5073481;28;20225;-45
2022/12/21 03:13:11;;;;;;;37.13;18.00;;;;;;;;;;5066402;28;20561;-44
2022/12/21 03:16:16;;;;;;;37.07;17.57;;;;;;;;;;5072156;28;20252;-45
2022/12/21 03:19:16;;;;;;;45.07;19.07;;;;;;;;;;5072201;28;20207;-48
2022/12/21 03:21:46;;;;;;;35.67;17.13;;;;;;;;;;5050719;28;20231;-44
2022/12/21 03:24:22;;;;;;;45.40;20.77;;;;;;;;;;5018268;28;20660;-46
2022/12/21 03:27:19;;;;;;;41.57;24.00;;;;;;;;;;5034653;28;20231;-48
2022/12/21 03:29:51;;;;;;;35.87;18.00;;;;;;;;;;4975776;28;20214;-45
2022/12/21 03:32:51;;;;;;;38.17;18.17;;;;;;;;;;4991983;28;20216;-44
2022/12/21 03:35:34;;;;;;;40.00;18.40;;;;;;;;;;4953009;29;20226;-45
2022/12/21 03:38:04;;;;;;;42.43;18.97;;;;;;;;;;4952970;29;20219;-45
2022/12/21 03:40:33;;;;;;;40.13;19.03;;;;;;;;;;4937183;29;20210;-45
2022/12/21 03:43:15;;;;;;;37.00;18.97;;;;;;;;;;4937141;29;20321;-44
2022/12/21 03:45:48;;;;;;;37.50;19.47;;;;;;;;;;4952854;29;20211;-45
2022/12/21 03:48:26;;;;;;;51.97;23.27;;;;;;;;;;4952789;28;20258;-45
2022/12/21 03:50:58;;;;;;;58.43;36.13;;;;;;;;;;4952867;29;20223;-47
2022/12/21 03:53:45;;;;;;;40.67;21.07;;;;;;;;;;4952869;29;20207;-44
2022/12/21 03:56:18;;;;;;;42.97;19.40;;;;;;;;;;4952894;29;20211;-45
2022/12/21 03:58:45;;;;;;;45.23;24.13;;;;;;;;;;4956060;28;20306;-44
2022/12/21 04:01:25;;;;;;;40.23;17.97;;;;;;;;;;4956706;29;20203;-45
2022/12/21 04:03:58;;;;;;;34.97;17.17;;;;;;;;;;4956680;29;20207;-45
2022/12/21 04:06:28;;;;;;;32.73;15.40;;;;;;;;;;4975303;28;20202;-44
2022/12/21 04:08:55;;;;;;;31.97;16.10;;;;;;;;;;5014963;28;20205;-44
2022/12/21 04:14:08;;;;;;;41.50;22.33;;;;;;;;;;5076435;28;20202;-44
2022/12/21 04:16:35;;;;;;;30.13;15.70;;;;;;;;;;5076334;28;20207;-46
2022/12/21 04:21:48;;;;;;;39.30;18.07;;;;;;;;;;5076592;28;20242;-44
2022/12/21 04:29:46;;;;;;;30.63;14.47;;;;;;;;;;5076133;28;20207;-46
2022/12/21 04:32:13;;;;;;;30.47;15.33;;;;;;;;;;5087869;28;20202;-45
2022/12/21 04:34:40;;;;;;;28.70;14.77;;;;;;;;;;5095033;28;20213;-45
2022/12/21 04:39:53;;;;;;;30.07;15.63;;;;;;;;;;5093479;28;20219;-46
2022/12/21 04:42:20;;;;;;;28.67;15.13;;;;;;;;;;5094111;28;20207;-44
2022/12/21 04:44:47;;;;;;;39.33;15.37;;;;;;;;;;5092934;28;20199;-45
2022/12/21 04:47:14;;;;;;;28.40;14.10;;;;;;;;;;5092331;28;20788;-47
2022/12/21 04:49:41;;;;;;;29.17;14.57;;;;;;;;;;5094747;28;20191;-45
2022/12/21 04:52:09;;;;;;;29.97;14.90;;;;;;;;;;5094659;28;20577;-50
2022/12/21 04:54:36;;;;;;;30.80;15.57;;;;;;;;;;5094675;28;20195;-47
2022/12/21 04:57:03;;;;;;;29.97;14.23;;;;;;;;;;5094828;28;20264;-46
2022/12/21 04:59:30;;;;;;;34.80;18.00;;;;;;;;;;5094491;28;20203;-47
2022/12/21 05:01:58;;;;;;;34.80;17.80;;;;;;;;;;5084698;28;20223;-46
2022/12/21 05:04:25;;;;;;;29.93;16.03;;;;;;;;;;5083550;28;20333;-43
2022/12/21 05:06:54;;;;;;;30.33;14.97;;;;;;;;;;5094820;28;20215;-44
2022/12/21 05:09:22;;;;;;;33.07;15.10;;;;;;;;;;5094077;28;20222;-48
2022/12/21 05:11:48;;;;;;;40.93;18.37;;;;;;;;;;5094442;28;20237;-44
2022/12/21 05:14:15;;;;;;;62.83;27.13;;;;;;;;;;5094417;28;20219;-45
2022/12/21 05:16:43;;;;;;;58.93;29.47;;;;;;;;;;5093897;28;20706;-43
2022/12/21 05:19:10;;;;;;;26.70;14.83;;;;;;;;;;5093758;28;20206;-43
2022/12/21 05:21:37;;;;;;;25.67;14.70;;;;;;;;;;5093886;28;20235;-44
2022/12/21 05:24:05;;;;;;;49.57;24.33;;;;;;;;;;5092758;28;20377;-44
2022/12/21 05:26:32;;;;;;;80.87;54.33;;;;;;;;;;5083782;28;20230;-44
2022/12/21 05:28:59;;;;;;;157.23;43.77;;;;;;;;;;5074771;28;20271;-44
2022/12/21 05:31:26;;;;;;;42.03;19.03;;;;;;;;;;5074338;28;20230;-46
2022/12/21 05:33:53;;;;;;;49.20;32.27;;;;;;;;;;5074907;28;20311;-45
2022/12/21 05:36:21;;;;;;;74.60;54.53;;;;;;;;;;5074549;28;20773;-44
2022/12/21 05:38:48;;;;;;;41.87;26.30;;;;;;;;;;5074919;28;20257;-45
2022/12/21 05:41:16;;;;;;;71.57;23.43;;;;;;;;;;5074346;28;20223;-52
2022/12/21 05:43:44;;;;;;;40.47;17.43;;;;;;;;;;5073526;28;20731;-44
2022/12/21 05:46:12;;;;;;;34.20;15.57;;;;;;;;;;5073602;28;20224;-51
2022/12/21 05:48:44;;;;;;;39.43;18.03;;;;;;;;;;5094167;28;20238;-46
2022/12/21 05:51:13;;;;;;;40.00;16.73;;;;;;;;;;5091416;28;20598;-46
2022/12/21 05:53:42;;;;;;;32.40;18.67;;;;;;;;;;5094652;28;20233;-44
2022/12/21 05:56:10;;;;;;;37.80;17.37;;;;;;;;;;5093676;28;20671;-45
2022/12/21 05:58:37;;;;;;;63.47;20.27;;;;;;;;;;5093801;28;20218;-45
2022/12/21 06:01:06;;;;;;;35.10;16.83;;;;;;;;;;5094165;28;20258;-45
2022/12/21 06:03:34;;;;;;;38.00;18.63;;;;;;;;;;5093967;28;20229;-45
2022/12/21 06:06:06;;;;;;;35.40;16.13;;;;;;;;;;5095053;28;20230;-44
2022/12/21 06:08:33;;;;;;;34.00;17.23;;;;;;;;;;5094470;28;20258;-43
2022/12/21 06:11:16;;;;;;;30.27;16.00;;;;;;;;;;5094470;28;20238;-45
2022/12/21 06:13:43;;;;;;;49.83;22.00;;;;;;;;;;5094585;28;20231;-47
2022/12/21 06:16:14;;;;;;;31.13;15.73;;;;;;;;;;5092909;28;20227;-46
2022/12/21 06:18:41;;;;;;;28.80;15.73;;;;;;;;;;5093160;28;20203;-45
2022/12/21 06:21:10;;;;;;;29.40;15.67;;;;;;;;;;5091290;28;20290;-47
2022/12/21 06:23:38;;;;;;;28.90;13.63;;;;;;;;;;5093812;28;20289;-44
2022/12/21 06:26:08;;;;;;;28.90;14.83;;;;;;;;;;5093835;28;20264;-46
2022/12/21 06:28:35;;;;;;;40.47;16.20;;;;;;;;;;5093975;28;20226;-44
2022/12/21 06:31:08;;;;;;;38.53;15.53;;;;;;;;;;5093910;28;20203;-44
2022/12/21 06:33:35;;;;;;;43.27;18.33;;;;;;;;;;5093893;28;20218;-44
2022/12/21 06:36:04;;;;;;;36.83;15.93;;;;;;;;;;5093857;28;20511;-45
2022/12/21 06:38:31;;;;;;;35.77;16.03;;;;;;;;;;5094662;28;20203;-45
2022/12/21 06:41:01;;;;;;;29.30;15.37;;;;;;;;;;5092676;28;20658;-46
2022/12/21 06:43:29;;;;;;;31.50;15.33;;;;;;;;;;5094290;28;20206;-44
2022/12/21 06:45:59;;;;;;;33.47;15.70;;;;;;;;;;5094554;28;20203;-44
2022/12/21 06:48:28;;;;;;;30.63;14.40;;;;;;;;;;5094561;28;20246;-45
2022/12/21 06:50:57;;;;;;;26.30;13.20;;;;;;;;;;5092468;28;20244;-44
2022/12/21 06:53:26;;;;;;;29.93;16.03;;;;;;;;;;5094163;28;20214;-45
2022/12/21 06:56:09;;;;;;;29.77;14.40;;;;;;;;;;5094754;28;20642;-47
2022/12/21 06:58:46;;;;;;;36.63;16.50;;;;;;;;;;5094223;28;20256;-44
2022/12/21 07:01:22;;;;;;;32.17;14.57;;;;;;;;;;5094334;28;20549;-44
2022/12/21 07:03:49;;;;;;;27.20;14.53;;;;;;;;;;5094172;28;20202;-45
2022/12/21 07:06:18;;;;;;;30.63;14.43;;;;;;;;;;5093544;28;20199;-48
2022/12/21 07:08:45;;;;;;;28.67;14.27;;;;;;;;;;5093416;28;20279;-44
2022/12/21 07:11:14;;;;;;;30.47;15.47;;;;;;;;;;5094254;28;20202;-44
2022/12/21 07:13:42;;;;;;;27.70;13.97;;;;;;;;;;5094127;28;20251;-45
2022/12/21 07:16:11;;;;;;;34.07;14.70;;;;;;;;;;5093167;28;20268;-44
2022/12/21 07:18:39;;;;;;;32.17;14.53;;;;;;;;;;5094001;28;20230;-44
2022/12/21 07:21:08;;;;;;;29.67;14.43;;;;;;;;;;5094225;28;20690;-44
2022/12/21 07:23:36;;;;;;;28.00;14.33;;;;;;;;;;5094034;28;20647;-45
2022/12/21 07:26:06;;;;;;;29.70;15.23;;;;;;;;;;5094197;28;20203;-44
2022/12/21 07:28:35;;;;;;;33.60;16.47;;;;;;;;;;5093710;28;20233;-43
2022/12/21 07:31:09;;;;;;;32.57;18.13;;;;;;;;;;5093718;28;20232;-44
2022/12/21 07:33:37;;;;;;;36.40;16.20;;;;;;;;;;5093923;28;20206;-44
2022/12/21 07:36:06;;;;;;;31.33;14.70;;;;;;;;;;5093882;28;20705;-44
2022/12/21 07:38:34;;;;;;;28.70;14.23;;;;;;;;;;5093370;28;20218;-46
2022/12/21 07:41:06;;;;;;;28.80;14.13;;;;;;;;;;5092886;28;20218;-43
2022/12/21 07:43:33;;;;;;;33.27;15.30;;;;;;;;;;5093831;28;20680;-44
2022/12/21 07:46:08;;;;;;;32.77;17.30;;;;;;;;;;5091685;28;20235;-44
2022/12/21 07:48:36;;;;;;;40.17;16.70;;;;;;;;;;5092943;28;20384;-44
2022/12/21 07:51:04;;;;;;;36.60;17.23;;;;;;;;;;5092453;28;20213;-46
2022/12/21 07:53:33;;;;;;;29.50;15.10;;;;;;;;;;5092232;28;20203;-44
2022/12/21 07:56:12;;;;;;;28.80;14.97;;;;;;;;;;5092166;28;20206;-46
2022/12/21 07:58:39;;;;;;;27.90;15.23;;;;;;;;;;5093099;28;20220;-44
2022/12/21 08:01:16;;;;;;;30.57;15.60;;;;;;;;;;5093171;28;20229;-44
2022/12/21 08:03:44;;;;;;;27.90;14.13;;;;;;;;;;5092916;28;20194;-44
2022/12/21 08:06:13;;;;;;;33.73;16.03;;;;;;;;;;5092194;28;20210;-44
2022/12/21 08:08:41;;;;;;;29.73;14.50;;;;;;;;;;5092953;28;20232;-44
2022/12/21 08:11:14;;;;;;;30.57;13.90;;;;;;;;;;5093080;28;20194;-44
2022/12/21 08:13:41;;;;;;;41.60;19.47;;;;;;;;;;5093536;28;20191;-44
2022/12/21 08:16:11;;;;;;;33.63;16.43;;;;;;;;;;5093707;28;20214;-44
2022/12/21 08:18:38;;;;;;;28.00;15.50;;;;;;;;;;5092584;28;20217;-44
2022/12/21 08:21:06;;;;;;;28.63;14.77;;;;;;;;;;5093094;28;20235;-46
2022/12/21 08:23:33;;;;;;;31.80;15.33;;;;;;;;;;5093349;28;20203;-43
2022/12/21 08:26:02;;;;;;;29.97;14.97;;;;;;;;;;5092684;28;20576;-44
2022/12/21 08:28:30;;;;;;;35.67;17.23;;;;;;;;;;5093508;28;20236;-45
2022/12/21 08:31:13;;;;;;;60.63;30.33;;;;;;;;;;5091644;28;20202;-46
2022/12/21 08:33:42;;;;;;;47.23;27.13;;;;;;;;;;5092985;28;20195;-45
2022/12/21 08:36:15;;;;;;;56.20;30.23;;;;;;;;;;5093370;28;20206;-44
2022/12/21 08:38:42;;;;;;;45.20;27.07;;;;;;;;;;5092963;28;20291;-44
2022/12/21 08:41:29;;;;;;;75.07;45.60;;;;;;;;;;5092653;28;20203;-44
2022/12/21 08:43:56;;;;;;;86.33;45.73;;;;;;;;;;5094011;28;20302;-45
2022/12/21 08:46:24;;;;;;;66.10;34.07;;;;;;;;;;5097139;28;20229;-44
2022/12/21 08:48:51;;;;;;;51.03;28.63;;;;;;;;;;5096572;28;20738;-44
2022/12/21 08:51:18;;;;;;;59.47;28.93;;;;;;;;;;5097004;28;20205;-45
2022/12/21 08:53:46;;;;;;;66.70;34.20;;;;;;;;;;5096442;28;20210;-44
2022/12/21 08:56:19;;;;;;;52.80;29.47;;;;;;;;;;5096652;28;20627;-45
2022/12/21 08:58:46;;;;;;;44.53;23.00;;;;;;;;;;5096881;28;20210;-45
2022/12/21 09:01:21;;;;;;;44.67;22.33;;;;;;;;;;5096947;28;20198;-45
2022/12/21 09:03:49;;;;;;;52.13;28.07;;;;;;;;;;5097026;28;20185;-46
2022/12/21 09:06:16;;;;;;;33.00;17.93;;;;;;;;;;5096474;28;20592;-44
2022/12/21 09:08:43;;;;;;;42.47;22.40;;;;;;;;;;5096442;28;20233;-44
2022/12/21 09:11:13;;;;;;;45.53;23.23;;;;;;;;;;5096033;28;20202;-44
2022/12/21 09:13:40;;;;;;;42.93;22.83;;;;;;;;;;5095701;28;20285;-45
2022/12/21 09:16:15;;;;;;;53.20;24.43;;;;;;;;;;5096015;28;20214;-45
2022/12/21 09:18:43;;;;;;;39.93;20.63;;;;;;;;;;5096156;28;20198;-45
2022/12/21 09:21:12;;;;;;;50.53;23.83;;;;;;;;;;5095089;28;20540;-44
2022/12/21 09:23:39;;;;;;;42.43;21.87;;;;;;;;;;5095918;28;20237;-44
2022/12/21 09:26:07;;;;;;;41.63;22.20;;;;;;;;;;5095852;28;20206;-45
2022/12/21 09:28:35;;;;;;;42.20;23.27;;;;;;;;;;5095504;28;20225;-44
2022/12/21 09:31:13;;;;;;;41.23;22.90;;;;;;;;;;5096005;28;20199;-44
2022/12/21 09:33:47;;;;;;;51.67;26.03;;;;;;;;;;5094912;28;20263;-45
2022/12/21 09:36:15;;;;;;;46.43;23.47;;;;;;;;;;5095306;28;20211;-46
2022/12/21 09:38:42;;;;;;;45.57;22.33;;;;;;;;;;5095455;28;20203;-46
2022/12/21 09:41:28;;;;;;;49.53;25.17;;;;;;;;;;5095217;28;20218;-45
2022/12/21 09:44:13;;;;;;;44.73;20.87;;;;;;;;;;5095694;28;20268;-45
2022/12/21 09:46:42;;;;;;;42.20;22.07;;;;;;;;;;5094243;28;20263;-44
2022/12/21 09:49:16;;;;;;;46.80;23.83;;;;;;;;;;5095706;28;20258;-44
2022/12/21 09:52:02;;;;;;;66.90;32.13;;;;;;;;;;5095419;28;20198;-44
2022/12/21 09:54:43;;;;;;;50.67;27.63;;;;;;;;;;5094608;28;20202;-45
2022/12/21 09:57:13;;;;;;;52.10;26.60;;;;;;;;;;5093639;28;20203;-45
2022/12/21 09:59:40;;;;;;;55.47;28.67;;;;;;;;;;5095487;28;20221;-45
2022/12/21 10:02:45;;;;;;;60.07;29.87;;;;;;;;;;5095151;28;20271;-46
2022/12/21 10:05:15;;;;;;;53.47;24.67;;;;;;;;;;5094289;28;20203;-44
2022/12/21 10:07:56;;;;;;;50.60;23.87;;;;;;;;;;5095061;28;20191;-47
2022/12/21 10:11:00;;;;;;;51.20;23.80;;;;;;;;;;5095336;28;20309;-45
2022/12/21 10:13:40;;;;;;;72.30;30.10;;;;;;;;;;5057798;28;20207;-44
2022/12/21 10:16:32;;;;;;;60.03;26.37;;;;;;;;;;5093670;28;20198;-45
2022/12/21 10:19:33;;;;;;;46.17;23.10;;;;;;;;;;5094262;28;20198;-45
2022/12/21 10:22:06;;;;;;;65.73;25.63;;;;;;;;;;5093417;28;20290;-44
2022/12/21 10:24:46;;;;;;;61.40;25.57;;;;;;;;;;5092459;28;20190;-45
2022/12/21 10:27:25;;;;;;;68.23;35.33;;;;;;;;;;5094442;28;20216;-45
2022/12/21 10:29:55;;;;;;;64.60;27.57;;;;;;;;;;5093963;28;20675;-44
2022/12/21 10:32:22;;;;;;;51.80;24.00;;;;;;;;;;5093974;28;20232;-44
2022/12/21 10:34:53;;;;;;;59.23;26.17;;;;;;;;;;5094129;28;20275;-44
2022/12/21 10:37:21;;;;;;;55.47;28.00;;;;;;;;;;5094075;28;20251;-44
2022/12/21 10:39:55;;;;;;;60.70;28.57;;;;;;;;;;5094698;28;20647;-45
2022/12/21 10:42:30;;;;;;;52.13;25.03;;;;;;;;;;5095015;28;20194;-44
2022/12/21 10:44:58;;;;;;;54.93;26.13;;;;;;;;;;5094634;28;20202;-45
2022/12/21 10:47:25;;;;;;;48.70;24.47;;;;;;;;;;5093761;28;20198;-45
2022/12/21 10:49:58;;;;;;;53.30;26.00;;;;;;;;;;5094747;28;20546;-45
2022/12/21 10:52:38;;;;;;;57.83;26.37;;;;;;;;;;5093830;28;20202;-46
2022/12/21 10:55:24;;;;;;;53.30;24.67;;;;;;;;;;5094289;28;20203;-47
2022/12/21 10:58:00;;;;;;;49.83;23.80;;;;;;;;;;5094327;28;20206;-45
2022/12/21 11:00:35;;;;;;;57.03;25.83;;;;;;;;;;5094237;28;20275;-48
2022/12/21 11:03:29;;;;;;;59.00;24.97;;;;;;;;;;5093229;28;20680;-46
2022/12/21 11:05:57;;;;;;;54.80;25.60;;;;;;;;;;5088563;28;20206;-46
2022/12/21 11:08:31;;;;;;;60.23;29.07;;;;;;;;;;5092918;28;20631;-45
2022/12/21 11:11:26;;;;;;;55.90;26.83;;;;;;;;;;5094016;28;20195;-44
2022/12/21 11:13:59;;;;;;;57.70;26.23;;;;;;;;;;5094418;28;20233;-44
2022/12/21 11:16:35;;;;;;;54.23;24.93;;;;;;;;;;5094405;28;20203;-45
2022/12/21 11:19:03;;;;;;;62.97;26.90;;;;;;;;;;5093851;28;20634;-46
2022/12/21 11:21:39;;;;;;;60.00;27.10;;;;;;;;;;5093932;28;20235;-44
2022/12/21 11:24:13;;;;;;;48.60;23.77;;;;;;;;;;5094224;28;20663;-44
2022/12/21 11:26:48;;;;;;;52.10;25.40;;;;;;;;;;5092435;28;20202;-44
2022/12/21 11:29:27;;;;;;;51.37;24.73;;;;;;;;;;5093207;28;20230;-45
2022/12/21 11:31:56;;;;;;;59.63;31.77;;;;;;;;;;5092973;28;20640;-45
2022/12/21 11:34:36;;;;;;;57.93;27.23;;;;;;;;;;5075579;28;20194;-44
2022/12/21 11:37:21;;;;;;;57.80;25.50;;;;;;;;;;5076011;28;20210;-45
2022/12/21 11:39:48;;;;;;;52.90;24.43;;;;;;;;;;5093234;28;20222;-45
2022/12/21 11:42:21;;;;;;;54.13;25.00;;;;;;;;;;5094062;28;20206;-46
2022/12/21 11:44:51;;;;;;;54.50;25.20;;;;;;;;;;5092391;28;20245;-45
2022/12/21 11:47:25;;;;;;;52.33;24.83;;;;;;;;;;5092429;28;20223;-45
2022/12/21 11:50:07;;;;;;;59.30;24.87;;;;;;;;;;5093825;28;20211;-44
2022/12/21 11:52:49;;;;;;;61.87;26.50;;;;;;;;;;5093039;28;20635;-45
2022/12/21 11:55:22;;;;;;;57.47;25.93;;;;;;;;;;5092073;28;20204;-47
2022/12/21 11:57:59;;;;;;;53.50;25.80;;;;;;;;;;5092230;28;20199;-46
2022/12/21 12:00:27;;;;;;;58.23;26.33;;;;;;;;;;5093459;28;20214;-46
2022/12/21 12:03:27;;;;;;;65.13;26.43;;;;;;;;;;5092159;28;20199;-44
2022/12/21 12:06:05;;;;;;;61.07;27.73;;;;;;;;;;5091992;28;20631;-46
2022/12/21 12:08:56;;;;;;;79.37;32.67;;;;;;;;;;5092767;28;20513;-45
2022/12/21 12:11:29;;;;;;;88.37;34.73;;;;;;;;;;5093296;28;20202;-45
2022/12/21 12:14:14;;;;;;;89.53;34.30;;;;;;;;;;5093723;28;20244;-46
2022/12/21 12:16:47;;;;;;;79.83;32.20;;;;;;;;;;5093851;28;20281;-45
2022/12/21 12:19:21;;;;;;;103.40;38.10;;;;;;;;;;5094784;28;20210;-45
2022/12/21 12:22:13;;;;;;;121.00;46.43;;;;;;;;;;5097525;28;20234;-45
2022/12/21 12:24:50;;;;;;;122.83;45.23;;;;;;;;;;5096511;28;20210;-46
2022/12/21 12:27:49;;;;;;;162.47;53.93;;;;;;;;;;5096697;28;20202;-45
2022/12/21 12:30:20;;;;;;;125.70;44.47;;;;;;;;;;5096168;28;20670;-46
2022/12/21 12:33:06;;;;;;;156.77;51.83;;;;;;;;;;5097265;28;20198;-45
2022/12/21 12:35:39;;;;;;;162.83;56.60;;;;;;;;;;5096074;28;20199;-46
2022/12/21 12:38:15;;;;;;;163.53;51.73;;;;;;;;;;5096527;28;20214;-46
2022/12/21 12:40:58;;;;;;;112.40;41.03;;;;;;;;;;5096543;28;20232;-47
2022/12/21 12:44:04;;;;;;;202.43;61.50;;;;;;;;;;5089415;28;20226;-46
2022/12/21 12:46:51;;;;;;;151.87;50.40;;;;;;;;;;5094823;28;20271;-46
2022/12/21 12:49:33;;;;;;;171.23;55.03;;;;;;;;;;5093389;28;20226;-46
2022/12/21 12:52:16;;;;;;;173.47;57.93;;;;;;;;;;5093146;28;20226;-47
2022/12/21 12:54:50;;;;;;;226.47;68.83;;;;;;;;;;5091793;28;20305;-47
2022/12/21 12:58:02;;;;;;;83.23;42.07;;;;;;;;;;5093074;28;20218;-47
2022/12/21 13:00:33;;;;;;;73.10;34.00;;;;;;;;;;5094053;28;20225;-47
2022/12/21 13:03:07;;;;;;;74.53;32.83;;;;;;;;;;5093547;28;20222;-46
2022/12/21 13:05:37;;;;;;;71.43;34.03;;;;;;;;;;5092288;28;20310;-47
2022/12/21 13:08:36;;;;;;;79.17;39.17;;;;;;;;;;5093302;28;20254;-47
2022/12/21 13:11:20;;;;;;;64.33;31.60;;;;;;;;;;5091951;28;20241;-46
2022/12/21 13:14:04;;;;;;;69.70;32.67;;;;;;;;;;5093206;28;20652;-48
2022/12/21 13:16:39;;;;;;;67.87;31.43;;;;;;;;;;5090517;28;20597;-48
2022/12/21 13:19:09;;;;;;;68.10;31.40;;;;;;;;;;5091887;28;20230;-48
2022/12/21 13:21:39;;;;;;;70.20;33.23;;;;;;;;;;5093473;28;20241;-54
2022/12/21 13:24:20;;;;;;;68.17;31.50;;;;;;;;;;5094489;28;20233;-48
2022/12/21 13:26:49;;;;;;;80.73;36.03;;;;;;;;;;5092730;28;20304;-49
2022/12/21 13:29:31;;;;;;;72.87;33.63;;;;;;;;;;5093695;28;20234;-50
2022/12/21 13:32:02;;;;;;;68.53;31.20;;;;;;;;;;5090238;28;20321;-47
2022/12/21 13:34:49;;;;;;;85.73;40.30;;;;;;;;;;5082142;28;20266;-47
2022/12/21 13:37:20;;;;;;;122.80;53.97;;;;;;;;;;5090972;28;20259;-53
2022/12/21 13:40:04;;;;;;;118.80;52.33;;;;;;;;;;5094853;28;20226;-48
2022/12/21 13:43:10;;;;;;;188.27;71.23;;;;;;;;;;5093288;28;20245;-49
2022/12/21 13:45:43;;;;;;;169.83;68.73;;;;;;;;;;5093853;28;20223;-49
2022/12/21 13:48:21;;;;;;;129.37;52.80;;;;;;;;;;5094820;28;20243;-48
2022/12/21 13:51:01;;;;;;;128.93;49.73;;;;;;;;;;5092949;28;20249;-50
2022/12/21 13:54:05;;;;;;;157.53;62.53;;;;;;;;;;5093937;28;20245;-50
2022/12/21 13:56:49;;;;;;;75.17;35.60;;;;;;;;;;5092236;28;20210;-51
2022/12/21 13:59:30;;;;;;;99.57;48.50;;;;;;;;;;5092306;28;20247;-48
2022/12/21 14:02:01;;;;;;;84.27;41.93;;;;;;;;;;5094665;28;20222;-48
2022/12/21 14:04:44;;;;;;;71.37;37.10;;;;;;;;;;5078736;28;20218;-49
2022/12/21 14:07:36;;;;;;;71.10;34.93;;;;;;;;;;5092021;28;20226;-47
2022/12/21 14:10:13;;;;;;;75.23;36.70;;;;;;;;;;5094254;28;20237;-48
2022/12/21 14:13:30;;;;;;;72.57;33.70;;;;;;;;;;5093296;28;20231;-49
2022/12/21 14:16:00;;;;;;;74.07;33.90;;;;;;;;;;5093433;28;20325;-50
2022/12/21 14:18:34;;;;;;;75.00;33.83;;;;;;;;;;5092799;28;20275;-50
2022/12/21 14:21:07;;;;;;;66.77;30.70;;;;;;;;;;5089559;28;20223;-49
2022/12/21 14:23:44;;;;;;;68.00;30.70;;;;;;;;;;5092294;28;20272;-49
2022/12/21 14:26:31;;;;;;;73.57;32.73;;;;;;;;;;5089327;28;20503;-49
2022/12/21 14:29:04;;;;;;;74.33;37.40;;;;;;;;;;5091020;28;20226;-48
2022/12/21 14:31:31;;;;;;;68.23;33.87;;;;;;;;;;5092087;28;20323;-49
2022/12/21 14:34:07;;;;;;;101.50;40.10;;;;;;;;;;5091832;28;20218;-53
2022/12/21 14:37:10;;;;;;;127.63;50.50;;;;;;;;;;5091687;28;20223;-49
2022/12/21 14:39:59;;;;;;;129.50;52.07;;;;;;;;;;5092131;28;20683;-49
2022/12/21 14:42:41;;;;;;;102.77;46.10;;;;;;;;;;5089796;28;20230;-49
2022/12/21 14:45:11;;;;;;;136.40;57.20;;;;;;;;;;5091231;28;20911;-50
2022/12/21 14:47:49;;;;;;;113.73;51.13;;;;;;;;;;5092651;28;20222;-54
2022/12/21 14:50:20;;;;;;;114.40;51.30;;;;;;;;;;5091122;28;20539;-51
2022/12/21 14:53:11;;;;;;;107.33;51.00;;;;;;;;;;5091216;28;20237;-51
2022/12/21 14:55:42;;;;;;;81.50;37.53;;;;;;;;;;5089944;28;20249;-55
2022/12/21 14:58:22;;;;;;;80.07;37.70;;;;;;;;;;5090957;28;20229;-52
2022/12/21 15:01:19;;;;;;;73.70;34.23;;;;;;;;;;5089635;28;20551;-52
2022/12/21 15:03:53;;;;;;;79.17;37.93;;;;;;;;;;5090867;28;20225;-49
2022/12/21 15:06:33;;;;;;;79.80;35.57;;;;;;;;;;5088329;28;20211;-51
2022/12/21 15:09:19;;;;;;;82.10;36.60;;;;;;;;;;5091303;28;20283;-47
2022/12/21 15:11:52;;;;;;;82.57;36.67;;;;;;;;;;5091437;28;20336;-50
2022/12/21 15:14:43;;;;;;;89.23;39.80;;;;;;;;;;5091718;28;20367;-49
2022/12/21 15:17:16;;;;;;;81.13;35.87;;;;;;;;;;5088162;28;20848;-49